Everett, MA (02149)

1:21 PM EDT on May 27, 2015 (GMT -0400)
Prattville | | Change Station
CLOSE
Current Station
Personal Weather Station
Location: Chelsea, MA
Elevation: 112 ft
Nearby Weather Stations

Elev 112 ft 42.41 °N, 71.04 °W | Updated 34 seconds ago

Partly Cloudy
Partly Cloudy
85.1 °F
Feels Like 88 °F
N
22.1
Wind Variable Wind from South
Gusts 22.1 mph

Today
High -- | Low -- °F
--% Chance of Precip.
Yesterday
High -- | Low -- °F
Precip. -- in
5:12 AM 8:10 PM
Waxing Gibbous, 68% visible
Pressure 30.12 in
Visibility 10.0 miles
Clouds Few 4000 ft
Scattered Clouds 18000 ft
Scattered Clouds 25000 ft
Heat Index 88 °F
Dew Point 67 °F
Humidity 55%
Rainfall 0.00 in
Snow Depth Not available.
UV 9 out of 12
Pollen 10.10 out of 12
Air Quality Not available.
Flu Activity Local Activity
METAR KBOS 271654Z 19014KT 10SM FEW040 SCT180 SCT250 28/19 A3012 RMK AO2 SLP199 T02830189

More Conditions Fewer Conditions

Pressure 30.12 in
Visibility 10.0 miles
Clouds Few 4000 ft
Scattered Clouds 18000 ft
Scattered Clouds 25000 ft
Heat Index 88 °F
Dew Point 67 °F
Humidity 55%
Rainfall 0.00 in
Snow Depth Not available.
UV 9 out of 12
Pollen 10.10 out of 12
Air Quality Not available.
Flu Activity Local Activity
METAR KBOS 271654Z 19014KT 10SM FEW040 SCT180 SCT250 28/19 A3012 RMK AO2 SLP199 T02830189

More Conditions Fewer Conditions

10-Day Weather Forecast

Almanac

Astronomy

May. 27, 2015 Rise Set
Actual Time
Civil Twilight
Nautical Twilight
Astronomical Twilight
Moon
Length of Visible Light
Length of Day
Tomorrow will be .
, % of the Moon is Illuminated

Today's Extremes

State Highs State Lows

Community

WunderPhotos

Upload Photos

1,824,730 photos uploaded!

WunderBlogs® & News

Nearby

Air Quality

  Air Quality AQ Index Pollutant
Not available.

Snow Depth

Station Depth Elevation

Earthquake Activity

City Distance Mag. Time & Date
Minimum magnitude displayed is 2.5.

Coastal Water Temperatures

Place Temperature

Stations

Nearby Weather Stations

Station Location Temp. Windchill Dew Point Humidity Wind Precip. Elev Updated Type